North Lewisburg, Ohio
Current Conditions -  °F | °C
As of 10:13 PM on Wednesday 22 Oct 2014 (Local Time) from KMRT Reporting Station
Overcast Overcast  
Wind Chill: 45°   Ceiling: 2900
Heat Index: 47°   Visibility: 10mi
Dew Point: 39°   Wind: 5mph
Humidity: 72%   Direction: 10°N
Pressure: 30.26"   Gusts: NA
Location:  40.22°N, 83.56°W
Report Text: KMRT 230213Z AUTO 01004KT 10SM OVC029 09/04 A3026 RMK AO2 T00850037
Loading
Personal Weather Stations






























Interactive Weather Map
Tropical Storm Tracking
New forecast layout! Learn more

10-Day Weather Forecast

Advertisements
Track Severe Weather on mobile